Camden, SC

11:30 PM EST on December 20, 2014 (GMT -0500)
Woodward | Change Station
CLOSE
Current Station
Airport
Location: Camden,
Elevation: 302 ft
Nearby Weather Stations

Elev 302 ft 34.28 °N, 80.56 °W | Updated -243 second ago

Overcast
Overcast
41 °F
Feels Like 37 °F
N
6
Wind Variable Wind from NE

Today
High -- | Low -- °F
--% Chance of Precip.
Yesterday
High -- | Low -- °F
Precip. -- in
7:23 AM 5:15 PM
Waning Crescent, 1% visible
Pressure 30.27 in
Visibility 6.0 miles
Clouds Overcast 1800 ft
Windchill 37 °F
Dew Point 37 °F
Humidity 87%
Rainfall 0.15 in
Snow Depth Not available.
UV 0 out of 12
Pollen .50 out of 12
Air Quality Not available.
Flu Activity Not available.
METAR KCDN 210435Z AUTO 05005KT 6SM BR OVC018 05/03 A3027 RMK AO2 TSNO

More Conditions Fewer Conditions

Pressure 30.27 in
Visibility 6.0 miles
Clouds Overcast 1800 ft
Windchill 37 °F
Dew Point 37 °F
Humidity 87%
Rainfall 0.15 in
Snow Depth Not available.
UV 0 out of 12
Pollen .50 out of 12
Air Quality Not available.
Flu Activity Not available.
METAR KCDN 210435Z AUTO 05005KT 6SM BR OVC018 05/03 A3027 RMK AO2 TSNO

More Conditions Fewer Conditions

10-Day Weather Forecast

Almanac

Astronomy

Dec. 20, 2014 Rise Set
Actual Time
Civil Twilight
Nautical Twilight
Astronomical Twilight
Moon
Length of Visible Light
Length of Day
Tomorrow will be .
, % of the Moon is Illuminated

Today's Extremes

State Highs State Lows

Community

WunderPhotos

Upload Photos

1,779,358 photos uploaded!

WunderBlogs® & News

Nearby

Air Quality

  Air Quality AQ Index Pollutant
Not available.

Snow Depth

Station Depth Elevation

Earthquake Activity

City Distance Mag. Time & Date
Minimum magnitude displayed is 2.5.

Coastal Water Temperatures

Place Temperature

Nearby Weather Stations